Irving South's Hourly Summary for Wednesday, March 15, 2017
Hour Temp
(f)
RH
(%)
Solar Rad.
(MJ/m2)
Rainfall
(in)
Wind
(mph)
3/15/2017 12:00 AM 54 40 0 0 1.72
3/15/2017 1:00 AM 53 42 0 0 1.43
3/15/2017 2:00 AM 51 41 0 0 3.59
3/15/2017 3:00 AM 49 43 0 0 2.88
3/15/2017 4:00 AM 48 45 0 0 4.25
3/15/2017 5:00 AM 47 49 0 0 3.15
3/15/2017 6:00 AM 46 51 0 0 2.17
3/15/2017 7:00 AM 45 56 0 0 1.72
3/15/2017 8:00 AM 45 60 0.01 0 1.98
3/15/2017 9:00 AM 46 57 0.31 0 2.47
3/15/2017 10:00 AM 48 53 0.86 0 3.56
3/15/2017 11:00 AM 50 51 1.03 0 4
3/15/2017 12:00 PM 52 47 1.72 0 3.96
3/15/2017 1:00 PM 55 42 2.47 0 3.71
3/15/2017 2:00 PM 58 39 2.92 0 4.1
3/15/2017 3:00 PM 60 37 2.8 0 4.25
3/15/2017 4:00 PM 62 37 2.44 0 4.01
3/15/2017 5:00 PM 64 36 1.94 0 3.22
3/15/2017 6:00 PM 64 37 1.25 0 2.9
3/15/2017 7:00 PM 64 39 0.5 0 1.9
3/15/2017 8:00 PM 61 43 0.04 0 1.1
3/15/2017 9:00 PM 59 48 0 0 0.97
3/15/2017 10:00 PM 57 51 0 0 1.03
3/15/2017 11:00 PM 57 52 0 0 1.7
Data Summary 53 45 18.29 0.00 2.74